Silver Ridge, Maine
Current Conditions -  °F | °C
As of 5:53 AM on Friday 24 Oct 2014 (Local Time) from KMLT Reporting Station
Light Rain Light Rain  
Wind Chill:   Ceiling: 1100
Heat Index:   Visibility: 8mi
Dew Point:   Wind: 8mph
Humidity: 89%   Direction: 10°N
Pressure: 29.75"   Gusts: NA
Location:  45.8047°N, 68.2984°W
Report Text: KMLT 240953Z AUTO 01007KT 340V040 8SM -RA BKN011 OVC021 07/05 A2975 RMK AO2 SLP082 P0001 T00670050
Loading
Personal Weather Stations






























Interactive Weather Map
Tropical Storm Tracking
New forecast layout! Learn more

10-Day Weather Forecast

Advertisements
Track Severe Weather on mobile